createdAt,value
2023-10-29T00:04:44.023Z,10.00
2023-10-29T00:09:37.559Z,9.70
2023-10-29T00:12:05.508Z,10.00
2023-10-29T00:16:59.425Z,9.60
2023-10-29T00:21:53.549Z,9.90
2023-10-29T00:24:20.243Z,9.90
2023-10-29T00:26:46.829Z,9.80
2023-10-29T00:29:14.135Z,10.10
2023-10-29T00:31:40.758Z,9.40
2023-10-29T00:34:07.392Z,10.00
2023-10-29T00:36:34.294Z,10.20
2023-10-29T00:39:00.970Z,10.00
2023-10-29T00:41:27.575Z,10.10
2023-10-29T00:43:54.238Z,9.90
2023-10-29T00:46:21.502Z,10.10
2023-10-29T00:48:48.900Z,10.10
2023-10-29T00:51:15.759Z,9.20
2023-10-29T00:53:42.668Z,10.10
2023-10-29T00:56:09.630Z,9.50
2023-10-29T00:58:36.956Z,9.90
2023-10-29T01:01:04.072Z,10.00
2023-10-29T01:03:31.484Z,10.00
2023-10-29T01:05:58.438Z,10.10
2023-10-29T01:08:25.894Z,10.00
2023-10-29T01:10:52.595Z,10.00
2023-10-29T01:15:46.902Z,10.10
2023-10-29T01:20:41.432Z,10.00
2023-10-29T01:23:08.253Z,9.90
2023-10-29T01:25:34.927Z,9.80
2023-10-29T01:28:01.611Z,9.80
2023-10-29T01:30:28.272Z,9.90
2023-10-29T01:32:55.113Z,9.60
2023-10-29T01:35:22.043Z,9.90
2023-10-29T01:37:51.044Z,9.60
2023-10-29T01:40:17.754Z,9.90
2023-10-29T01:42:46.031Z,10.00
2023-10-29T01:45:14.801Z,10.00
2023-10-29T01:47:42.314Z,10.20
2023-10-29T01:50:09.358Z,10.10
2023-10-29T01:52:37.888Z,9.90
2023-10-29T01:55:06.208Z,9.80
2023-10-29T01:57:34.441Z,10.00
2023-10-29T02:00:01.133Z,10.10
2023-10-29T02:02:27.859Z,10.00
2023-10-29T02:04:54.483Z,10.20
2023-10-29T02:07:21.091Z,10.00
2023-10-29T02:09:48.644Z,9.70
2023-10-29T02:12:15.945Z,10.40
2023-10-29T02:14:42.607Z,9.60
2023-10-29T02:17:09.221Z,9.80
2023-10-29T02:19:35.915Z,10.00
2023-10-29T02:22:03.425Z,10.30
2023-10-29T02:24:30.118Z,10.00
2023-10-29T02:26:56.829Z,10.00
2023-10-29T02:29:23.553Z,10.00
2023-10-29T02:31:50.321Z,10.40
2023-10-29T02:34:17.036Z,10.30
2023-10-29T02:36:43.681Z,10.20
2023-10-29T02:39:13.128Z,10.40
2023-10-29T02:41:39.841Z,10.30
2023-10-29T02:44:06.611Z,10.20
2023-10-29T02:46:33.237Z,10.40
2023-10-29T02:48:59.838Z,10.50
2023-10-29T02:51:26.461Z,10.50
2023-10-29T02:53:53.150Z,10.10
2023-10-29T02:56:20.488Z,10.50
2023-10-29T03:02:27.840Z,10.10
2023-10-29T03:04:54.514Z,10.10
2023-10-29T03:09:48.398Z,10.50
2023-10-29T03:12:15.703Z,10.40
2023-10-29T03:14:42.487Z,10.60
2023-10-29T03:17:09.159Z,9.40
2023-10-29T03:19:35.757Z,10.60
2023-10-29T03:22:02.437Z,10.50
2023-10-29T03:24:29.052Z,10.30
2023-10-29T03:26:55.791Z,9.70
2023-10-29T03:29:23.150Z,10.70
2023-10-29T03:34:17.742Z,10.30
2023-10-29T03:39:11.404Z,10.30
2023-10-29T03:41:38.074Z,10.50
2023-10-29T03:44:05.096Z,9.80
2023-10-29T03:46:32.424Z,10.30
2023-10-29T03:51:28.786Z,10.30
2023-10-29T03:56:22.403Z,10.20
2023-10-29T03:58:49.069Z,10.50
2023-10-29T04:01:16.380Z,10.50
2023-10-29T04:03:44.299Z,10.40
2023-10-29T04:06:11.952Z,9.80
2023-10-29T04:08:39.264Z,10.20
2023-10-29T04:13:33.219Z,10.40
2023-10-29T04:15:59.960Z,10.60
2023-10-29T04:18:31.662Z,10.60
2023-10-29T04:20:59.301Z,10.60
2023-10-29T04:23:26.020Z,10.30
2023-10-29T04:25:52.765Z,10.40
2023-10-29T04:28:19.389Z,10.30
2023-10-29T04:30:46.097Z,10.60
2023-10-29T04:33:12.895Z,10.20
2023-10-29T04:35:39.583Z,10.50
2023-10-29T04:38:07.055Z,10.70
2023-10-29T04:40:33.679Z,10.50
2023-10-29T04:43:00.354Z,10.40
2023-10-29T04:45:26.959Z,10.70
2023-10-29T04:47:53.686Z,10.40
2023-10-29T04:50:20.390Z,10.60
2023-10-29T04:52:47.008Z,10.50
2023-10-29T04:55:14.642Z,10.30
2023-10-29T04:57:41.721Z,9.90
2023-10-29T05:00:09.577Z,10.50
2023-10-29T05:02:36.492Z,10.50
2023-10-29T05:05:04.074Z,10.70
2023-10-29T05:07:31.006Z,10.70
2023-10-29T05:09:57.740Z,10.60
2023-10-29T05:12:24.996Z,10.60
2023-10-29T05:14:51.939Z,10.50
2023-10-29T05:17:18.731Z,10.70
2023-10-29T05:19:45.384Z,10.50
2023-10-29T05:22:12.106Z,10.70
2023-10-29T05:24:38.754Z,10.80
2023-10-29T05:27:05.534Z,10.60
2023-10-29T05:29:34.076Z,10.00
2023-10-29T05:32:00.673Z,10.30
2023-10-29T05:34:27.332Z,10.80
2023-10-29T05:36:54.167Z,10.90
2023-10-29T05:39:20.765Z,10.70
2023-10-29T05:41:47.449Z,11.00
2023-10-29T05:44:14.779Z,10.80
2023-10-29T05:46:42.216Z,10.90
2023-10-29T05:49:08.876Z,11.00
2023-10-29T05:51:35.479Z,10.50
2023-10-29T05:54:02.079Z,10.10
2023-10-29T05:56:28.830Z,10.80
2023-10-29T05:58:55.475Z,10.90
2023-10-29T06:01:22.116Z,11.00
2023-10-29T06:03:49.626Z,11.10
2023-10-29T06:06:16.349Z,10.60
2023-10-29T06:08:42.985Z,10.80
2023-10-29T06:11:10.834Z,10.80
2023-10-29T06:13:37.470Z,11.10
2023-10-29T06:16:08.197Z,10.90
2023-10-29T06:18:35.923Z,10.90
2023-10-29T06:21:03.986Z,11.20
2023-10-29T06:23:30.830Z,11.00
2023-10-29T06:25:57.727Z,11.00
2023-10-29T06:28:24.493Z,11.20
2023-10-29T06:30:51.333Z,11.20
2023-10-29T06:33:18.608Z,11.30
2023-10-29T06:35:45.315Z,11.10
2023-10-29T06:38:14.392Z,10.90
2023-10-29T06:40:41.056Z,11.20
2023-10-29T06:43:08.315Z,11.10
2023-10-29T06:48:02.262Z,11.20
2023-10-29T06:50:28.937Z,11.50
2023-10-29T06:52:55.765Z,11.10
2023-10-29T06:55:23.599Z,11.40
2023-10-29T06:57:50.247Z,11.20
2023-10-29T07:00:17.348Z,11.40
2023-10-29T07:02:44.084Z,11.20
2023-10-29T07:05:10.887Z,11.20
2023-10-29T07:07:37.592Z,11.40
2023-10-29T07:10:05.001Z,11.60
2023-10-29T07:12:32.729Z,11.40
2023-10-29T07:14:59.722Z,11.40
2023-10-29T07:17:28.662Z,11.30
2023-10-29T07:19:55.464Z,11.40
2023-10-29T07:22:22.119Z,11.20
2023-10-29T07:24:48.995Z,11.40
2023-10-29T07:27:16.373Z,11.30
2023-10-29T07:29:44.521Z,10.80
2023-10-29T07:32:11.258Z,11.30
2023-10-29T07:34:37.994Z,11.30
2023-10-29T07:37:04.925Z,11.50
2023-10-29T07:39:31.635Z,10.90
2023-10-29T07:41:58.321Z,11.50
2023-10-29T07:44:25.069Z,11.30
2023-10-29T07:46:52.386Z,11.50
2023-10-29T07:49:19.100Z,11.60
2023-10-29T07:51:45.788Z,11.70
2023-10-29T07:54:12.659Z,11.40
2023-10-29T07:56:39.918Z,11.50
2023-10-29T07:59:06.522Z,11.60
2023-10-29T08:01:33.246Z,11.70
2023-10-29T08:04:00.665Z,11.40
2023-10-29T08:06:27.388Z,11.50
2023-10-29T08:08:54.440Z,11.20
2023-10-29T08:11:21.896Z,11.80
2023-10-29T08:13:50.708Z,11.40
2023-10-29T08:16:19.200Z,11.30
2023-10-29T08:18:46.034Z,11.50
2023-10-29T08:21:13.500Z,11.10
2023-10-29T08:23:40.777Z,11.40
2023-10-29T08:26:07.616Z,11.40
2023-10-29T08:28:36.704Z,11.50
2023-10-29T08:31:04.720Z,11.40
2023-10-29T08:33:31.936Z,11.50
2023-10-29T08:35:58.886Z,12.00
2023-10-29T08:38:26.353Z,11.80
2023-10-29T08:40:53.043Z,11.90
2023-10-29T08:43:19.760Z,11.80
2023-10-29T08:45:46.759Z,11.40
2023-10-29T08:48:13.749Z,11.80
2023-10-29T08:50:40.632Z,11.90
2023-10-29T08:53:07.442Z,12.80
2023-10-29T08:55:35.856Z,12.00
2023-10-29T08:58:02.657Z,11.70
2023-10-29T09:00:38.445Z,12.00
2023-10-29T09:03:13.898Z,11.90
2023-10-29T09:05:41.431Z,11.90
2023-10-29T09:08:08.606Z,12.00
2023-10-29T09:10:42.408Z,12.10
2023-10-29T09:13:09.181Z,12.20
2023-10-29T09:15:36.024Z,12.20
2023-10-29T09:18:03.353Z,12.40
2023-10-29T09:20:30.073Z,12.50
2023-10-29T09:22:56.770Z,12.60
2023-10-29T09:25:23.797Z,12.60
2023-10-29T09:27:51.154Z,12.60
2023-10-29T09:30:18.059Z,12.70
2023-10-29T09:32:44.955Z,12.70
2023-10-29T09:35:13.090Z,12.80
2023-10-29T09:37:39.857Z,12.70
2023-10-29T09:40:09.636Z,12.80
2023-10-29T09:42:44.203Z,12.40
2023-10-29T09:45:16.491Z,13.00
2023-10-29T09:47:43.275Z,12.90
2023-10-29T09:50:10.525Z,13.10
2023-10-29T09:52:37.283Z,12.90
2023-10-29T09:55:05.566Z,12.90
2023-10-29T09:57:32.240Z,12.50
2023-10-29T10:00:00.207Z,13.00
2023-10-29T10:02:27.577Z,12.90
2023-10-29T10:04:55.418Z,13.00
2023-10-29T10:07:22.761Z,12.90
2023-10-29T10:09:53.331Z,13.20
2023-10-29T10:12:20.853Z,12.80
2023-10-29T10:14:48.128Z,13.10
2023-10-29T10:17:15.182Z,13.10
2023-10-29T10:19:42.456Z,12.90
2023-10-29T10:22:09.430Z,13.00
2023-10-29T10:24:41.431Z,12.90
2023-10-29T10:27:09.517Z,13.00
2023-10-29T10:29:36.490Z,13.00
2023-10-29T10:32:05.705Z,13.10
2023-10-29T10:34:34.620Z,13.10
2023-10-29T10:37:03.390Z,12.70
2023-10-29T10:39:31.976Z,13.20
2023-10-29T10:42:00.821Z,12.60
2023-10-29T10:44:29.727Z,13.10
2023-10-29T10:46:59.340Z,13.10
2023-10-29T10:49:31.260Z,12.30
2023-10-29T10:54:27.578Z,13.20
2023-10-29T10:56:56.327Z,13.50
2023-10-29T10:59:23.801Z,13.50
2023-10-29T11:01:50.915Z,13.60
2023-10-29T11:04:19.640Z,13.70
2023-10-29T11:06:47.255Z,13.90
2023-10-29T11:09:15.159Z,13.90
2023-10-29T11:11:46.649Z,13.90
2023-10-29T11:14:14.780Z,14.20
2023-10-29T11:16:49.730Z,14.10
2023-10-29T11:19:43.615Z,14.50
2023-10-29T11:22:20.394Z,14.40
2023-10-29T11:25:38.227Z,14.60
2023-10-29T11:28:06.347Z,14.50
2023-10-29T11:30:33.194Z,14.60
2023-10-29T11:33:25.395Z,14.40
2023-10-29T11:36:31.921Z,14.60
2023-10-29T11:39:30.060Z,13.90
2023-10-29T11:41:57.624Z,14.40
2023-10-29T11:44:26.279Z,14.90
2023-10-29T11:47:06.073Z,14.80
2023-10-29T11:50:12.023Z,14.90
2023-10-29T11:52:44.802Z,15.20
2023-10-29T11:55:12.289Z,14.90
2023-10-29T11:57:44.158Z,14.90
2023-10-29T12:00:13.646Z,14.80
2023-10-29T12:02:40.780Z,14.80
2023-10-29T12:05:11.417Z,15.10
2023-10-29T12:07:38.116Z,15.20
2023-10-29T12:10:06.476Z,15.30
2023-10-29T12:12:33.101Z,15.00
2023-10-29T12:14:59.861Z,14.60
2023-10-29T12:17:27.911Z,15.20
2023-10-29T12:22:22.839Z,15.90
2023-10-29T12:24:52.157Z,15.90
2023-10-29T12:29:46.591Z,16.90
2023-10-29T12:32:16.988Z,16.40
2023-10-29T12:34:49.266Z,16.40
2023-10-29T12:37:23.456Z,16.20
2023-10-29T12:39:52.191Z,15.70
2023-10-29T12:42:19.106Z,15.90
2023-10-29T12:44:56.969Z,15.80
2023-10-29T12:47:23.971Z,15.90
2023-10-29T12:49:59.013Z,15.70
2023-10-29T12:52:26.727Z,15.90
2023-10-29T12:54:53.826Z,15.70
2023-10-29T12:57:20.564Z,15.60
2023-10-29T12:59:48.537Z,15.80
2023-10-29T13:02:22.796Z,15.70
2023-10-29T13:04:50.240Z,15.70
2023-10-29T13:07:19.260Z,15.60
2023-10-29T13:09:48.976Z,15.60
2023-10-29T13:12:16.715Z,15.50
2023-10-29T13:17:16.969Z,15.30
2023-10-29T13:19:43.888Z,15.60
2023-10-29T13:22:10.694Z,15.50
2023-10-29T13:24:38.058Z,15.30
2023-10-29T13:27:07.417Z,15.20
2023-10-29T13:29:38.927Z,15.30
2023-10-29T13:32:07.318Z,15.20
2023-10-29T13:34:35.164Z,15.20
2023-10-29T13:37:03.201Z,15.20
2023-10-29T13:39:30.385Z,15.10
2023-10-29T13:41:59.370Z,14.80
2023-10-29T13:44:28.088Z,15.00
2023-10-29T13:46:56.227Z,14.60
2023-10-29T13:49:23.199Z,14.90
2023-10-29T13:51:50.147Z,15.10
2023-10-29T13:54:16.926Z,15.00
2023-10-29T13:56:44.010Z,14.90
2023-10-29T13:59:12.127Z,17.20
2023-10-29T14:01:40.287Z,15.20
2023-10-29T14:04:07.086Z,15.80
2023-10-29T14:06:33.902Z,14.80
2023-10-29T14:09:00.959Z,14.70
2023-10-29T14:11:27.847Z,14.80
2023-10-29T14:13:56.474Z,14.80
2023-10-29T14:16:36.011Z,14.80
2023-10-29T14:19:02.771Z,14.80
2023-10-29T14:21:29.439Z,15.00
2023-10-29T14:23:56.840Z,14.70
2023-10-29T14:26:23.460Z,14.70
2023-10-29T14:28:50.169Z,14.80
2023-10-29T14:31:16.877Z,14.60
2023-10-29T14:33:44.380Z,14.60
2023-10-29T14:38:38.001Z,14.60
2023-10-29T14:43:31.511Z,14.60
2023-10-29T14:46:03.715Z,14.60
2023-10-29T14:48:30.457Z,14.50
2023-10-29T14:50:59.695Z,14.30
2023-10-29T14:53:26.328Z,14.60
2023-10-29T14:55:52.892Z,14.60
2023-10-29T14:58:19.564Z,14.50
2023-10-29T15:00:47.577Z,15.70
2023-10-29T15:03:14.594Z,14.50
2023-10-29T15:05:41.584Z,14.80
2023-10-29T15:08:09.019Z,14.50
2023-10-29T15:10:35.943Z,14.50
2023-10-29T15:13:02.614Z,14.50
2023-10-29T15:15:31.123Z,14.30
2023-10-29T15:17:58.554Z,14.40
2023-10-29T15:20:26.577Z,14.60
2023-10-29T15:22:53.379Z,14.30
2023-10-29T15:25:20.670Z,14.30
2023-10-29T15:27:48.368Z,14.40
2023-10-29T15:30:15.336Z,14.30
2023-10-29T15:32:42.431Z,14.40
2023-10-29T15:35:09.848Z,14.20
2023-10-29T15:37:38.338Z,14.20
2023-10-29T15:40:06.830Z,14.40
2023-10-29T15:42:34.116Z,13.80
2023-10-29T15:45:00.828Z,14.50
2023-10-29T15:49:54.827Z,14.20
2023-10-29T15:52:21.753Z,14.20
2023-10-29T15:54:49.324Z,14.30
2023-10-29T15:57:16.310Z,14.30
2023-10-29T15:59:44.037Z,14.40
2023-10-29T16:02:10.711Z,14.30
2023-10-29T16:04:37.851Z,14.40
2023-10-29T16:07:05.365Z,14.10
2023-10-29T16:09:32.568Z,14.10
2023-10-29T16:12:00.042Z,14.30
2023-10-29T16:14:26.673Z,13.60
2023-10-29T16:16:56.202Z,13.80
2023-10-29T16:19:23.056Z,13.90
2023-10-29T16:21:49.761Z,14.00
2023-10-29T16:24:17.143Z,14.00
2023-10-29T16:26:44.186Z,14.10
2023-10-29T16:29:12.448Z,13.70
2023-10-29T16:31:39.062Z,13.70
2023-10-29T16:34:07.854Z,13.70
2023-10-29T16:36:34.294Z,13.40
2023-10-29T16:39:00.990Z,13.60
2023-10-29T16:41:27.961Z,13.60
2023-10-29T16:46:21.694Z,13.50
2023-10-29T16:48:48.550Z,13.20
2023-10-29T16:51:16.027Z,13.40
2023-10-29T16:53:42.746Z,13.40
2023-10-29T16:56:09.606Z,13.20
2023-10-29T16:58:36.442Z,13.20
2023-10-29T17:01:03.946Z,13.30
2023-10-29T17:03:30.802Z,13.10
2023-10-29T17:05:57.745Z,13.20
2023-10-29T17:08:25.366Z,13.00
2023-10-29T17:10:56.359Z,13.50
2023-10-29T17:13:23.005Z,13.40
2023-10-29T17:15:57.610Z,13.40
2023-10-29T17:18:24.355Z,13.10
2023-10-29T17:20:54.235Z,13.30
2023-10-29T17:23:22.513Z,13.10
2023-10-29T17:25:50.066Z,13.10
2023-10-29T17:28:17.042Z,13.40
2023-10-29T17:33:11.045Z,13.10
2023-10-29T17:35:37.894Z,13.10
2023-10-29T17:38:04.963Z,13.10
2023-10-29T17:40:31.876Z,13.20
2023-10-29T17:43:00.103Z,13.10
2023-10-29T17:45:27.105Z,13.10
2023-10-29T17:47:54.415Z,13.10
2023-10-29T17:50:21.225Z,13.10
2023-10-29T17:52:47.984Z,12.90
2023-10-29T17:55:15.678Z,13.20
2023-10-29T17:57:42.994Z,13.40
2023-10-29T18:00:13.603Z,13.40
2023-10-29T18:02:41.411Z,13.30
2023-10-29T18:05:10.672Z,13.50
2023-10-29T18:07:37.583Z,13.20
2023-10-29T18:12:31.491Z,13.30
2023-10-29T18:17:25.964Z,13.30
2023-10-29T18:19:52.856Z,13.40
2023-10-29T18:22:19.458Z,13.40
2023-10-29T18:27:13.936Z,13.30
2023-10-29T18:29:40.719Z,13.40
2023-10-29T18:32:07.857Z,13.40
2023-10-29T18:34:35.289Z,13.40
2023-10-29T18:37:02.070Z,13.30
2023-10-29T18:39:28.882Z,13.20
2023-10-29T18:41:56.525Z,13.20
2023-10-29T18:44:30.239Z,13.20
2023-10-29T18:46:58.237Z,13.30
2023-10-29T18:49:27.319Z,13.40
2023-10-29T18:51:54.866Z,13.20
2023-10-29T18:54:21.574Z,13.20
2023-10-29T18:56:48.372Z,13.40
2023-10-29T18:59:15.330Z,13.20
2023-10-29T19:01:42.232Z,13.30
2023-10-29T19:04:09.072Z,13.30
2023-10-29T19:06:35.844Z,13.30
2023-10-29T19:09:03.335Z,13.20
2023-10-29T19:11:32.397Z,13.30
2023-10-29T19:13:59.002Z,13.40
2023-10-29T19:16:25.724Z,13.40
2023-10-29T19:18:53.231Z,13.40
2023-10-29T19:21:20.289Z,13.20
2023-10-29T19:23:47.063Z,13.50
2023-10-29T19:26:14.910Z,13.40
2023-10-29T19:28:41.877Z,13.40
2023-10-29T19:31:23.579Z,13.40
2023-10-29T19:33:52.157Z,13.40
2023-10-29T19:38:46.020Z,13.80
2023-10-29T19:41:12.659Z,14.00
2023-10-29T19:43:42.246Z,13.60
2023-10-29T19:46:09.573Z,13.50
2023-10-29T19:48:37.172Z,13.70
2023-10-29T19:51:06.515Z,13.70
2023-10-29T19:53:35.218Z,13.90
2023-10-29T19:56:07.148Z,13.80
2023-10-29T19:58:33.875Z,14.00
2023-10-29T20:01:04.503Z,13.70
2023-10-29T20:03:31.410Z,13.70
2023-10-29T20:05:58.740Z,13.80
2023-10-29T20:08:26.380Z,14.00
2023-10-29T20:10:53.962Z,13.80
2023-10-29T20:13:21.641Z,14.10
2023-10-29T20:15:52.288Z,13.90
2023-10-29T20:18:19.847Z,13.80
2023-10-29T20:20:47.566Z,13.70
2023-10-29T20:23:14.583Z,14.00
2023-10-29T20:25:41.377Z,13.60
2023-10-29T20:28:08.221Z,13.80
2023-10-29T20:30:35.025Z,14.10
2023-10-29T20:33:01.954Z,13.80
2023-10-29T20:35:30.641Z,13.70
2023-10-29T20:37:57.265Z,13.90
2023-10-29T20:40:27.593Z,14.10
2023-10-29T20:42:54.475Z,13.40
2023-10-29T20:45:21.212Z,13.60
2023-10-29T20:47:48.195Z,13.70
2023-10-29T20:50:16.415Z,13.80
2023-10-29T20:52:44.303Z,13.60
2023-10-29T20:55:11.938Z,13.50
2023-10-29T20:57:38.656Z,13.50
2023-10-29T21:00:07.171Z,13.50
2023-10-29T21:02:33.971Z,13.20
2023-10-29T21:05:00.685Z,12.90
2023-10-29T21:07:27.359Z,13.40
2023-10-29T21:09:54.850Z,13.30
2023-10-29T21:12:22.177Z,13.30
2023-10-29T21:14:48.871Z,12.90
2023-10-29T21:19:42.931Z,13.30
2023-10-29T21:27:04.664Z,13.40
2023-10-29T21:29:31.388Z,13.60
2023-10-29T21:31:58.076Z,13.70
2023-10-29T21:34:26.182Z,13.10
2023-10-29T21:39:19.923Z,13.40
2023-10-29T21:41:46.717Z,13.20
2023-10-29T21:44:14.172Z,13.50
2023-10-29T21:46:40.993Z,13.60
2023-10-29T21:51:34.833Z,13.30
2023-10-29T21:58:55.929Z,13.20
2023-10-29T22:01:23.354Z,13.30
2023-10-29T22:03:50.259Z,12.60
2023-10-29T22:06:17.251Z,13.10
2023-10-29T22:08:44.051Z,13.30
2023-10-29T22:11:12.326Z,13.70
2023-10-29T22:13:40.291Z,13.30
2023-10-29T22:16:08.486Z,13.00
2023-10-29T22:18:36.365Z,13.10
2023-10-29T22:21:04.941Z,13.40
2023-10-29T22:23:31.959Z,12.80
2023-10-29T22:28:26.317Z,13.00
2023-10-29T22:30:53.386Z,13.00
2023-10-29T22:33:20.130Z,13.30
2023-10-29T22:35:55.448Z,13.00
2023-10-29T22:38:22.047Z,13.30
2023-10-29T22:40:48.752Z,13.20
2023-10-29T22:43:15.390Z,13.30
2023-10-29T22:45:42.125Z,12.90
2023-10-29T22:48:08.986Z,13.10
2023-10-29T22:50:35.885Z,13.00
2023-10-29T22:53:03.440Z,13.10
2023-10-29T22:55:30.293Z,13.10
2023-10-29T22:57:57.640Z,13.30
2023-10-29T23:00:24.484Z,12.80
2023-10-29T23:05:20.291Z,12.80
2023-10-29T23:10:14.925Z,12.90
2023-10-29T23:12:41.584Z,12.80
2023-10-29T23:15:09.147Z,12.40
2023-10-29T23:17:36.075Z,13.10
2023-10-29T23:20:03.453Z,12.70
2023-10-29T23:22:30.622Z,12.90
2023-10-29T23:24:57.473Z,12.80
2023-10-29T23:27:25.201Z,13.00
2023-10-29T23:29:52.062Z,12.40
2023-10-29T23:32:18.979Z,12.70
2023-10-29T23:34:45.849Z,12.50
2023-10-29T23:37:12.472Z,13.00
2023-10-29T23:39:39.950Z,13.00
2023-10-29T23:42:06.918Z,12.90
2023-10-29T23:44:34.339Z,12.50
2023-10-29T23:47:01.024Z,12.30
2023-10-29T23:51:54.568Z,12.80
